BOO weather

Bodø Airport
Bodø, Nordland, Norway

Public forecast

Using degrees Celsius for public forecast. Weather courtesy of forecast.io.

Current aviation weather report (METAR) for Bodø Airport

Retrieved 2020/01/23 19:20 UTC (14 minutes ago):

ENBO 231920Z 25027G39KT 9999 VCSH FEW015CB SCT025 BKN100 03/00 Q0990 TEMPO 25025KT 4000 SHRA BKN012CB

Aviation forecast (TAF) for Bodø Airport

Retrieved 2020/01/23 18:57 UTC (37 minutes ago):

TAF TAF ENBO 231700Z 2318/2418 25025KT 9999 FEW015CB SCT040 TEMPO 2318/2418 2000 SHSNRA VV010 TEMPO 2318/2324 26030G45KT PROB40 TEMPO 2400/2418 27025G35KT TS BECMG 2409/2411 27015KT